Fai una donazione per la manutenzione ed il rinnovamento della strumentazione meteorologica e per il sito che la ospita.


Webcam more information Webcam



altri nostri siti meteo:

Previsioni audio clicca per ascoltarePrevisioni audio

RISCHIO INCENDIRischio incendi

PomeziameteoSito sul meteo

MeteopomeziaSito sul meteo

Pomeziameteo DashboardSito sul meteo

Caput FrigorisSito sul meteo

BarcellonameteoSito sul meteo

MeteoipassiSito sul meteo

TortoretometeolidoSito sul meteo

CastelnuovovomanometeoSito sul meteo

MeteogonzagaSito sul meteo

MeteonetworkInvio dai a Meteonetwork

Weather UndergroundInvio dai a Weather Underground

Scarica App android ViterbometeoInvio dai a Weather Underground



Problemi di comunicazione, Vai direttamente al sito di Meteoalarm : www.meteoalarm.eu e controlla gli allarmi .

Report METAR

   
LIRV - Viterbo (it-Mil), Italy
Distanza dalla stazione: W 4 km
Dati ricevuti: 17-08-2022 19:55
DATI Obsoleti
Sereno  
Sereno  
   Vento: West 20.4 km/h
Vento: West 20.4 km/h
Temperatura: 28°C
Indice di Calore: 32°C
P.to Rugiada: 24°C
Umidita: 79%
Barometro: 1012 hPa
Visibilita: oltre 10 km
dettagli cloud: Sereno
LIRV 171755Z 27011KT CAVOK 28/24 Q1012
LIQN - Rieti, Italy
Distanza dalla stazione: E 59 km
Dati ricevuti: 17-08-2022 19:50
DATI Obsoleti
Parzialmente nuvoloso  
Parzialmente nuvoloso  
   Vento: Variabile 3.7 km/h
Vento: Variabile 3.7 km/h
Temperatura: 31°C
Indice di Calore: 31°C
P.to Rugiada: 17°C
Umidita: 43%
Barometro: 1013 hPa
Nuvole: Parzialmente nuvoloso
Visibilita: 9 km
dettagli cloud: Parzialmente nuvoloso
LIQN 171750Z VRB02KT 9000 NSC 31/17 Q1013
LIRU - Rome/Urbe (it-Af, Italy
Distanza dalla stazione: S 61 km
Dati ricevuti: 17-08-2022 19:50
DATI Obsoleti
Sereno  
Sereno  
   Vento: West 5.6 km/h
Vento: West 5.6 km/h
Temperatura: 32°C
Indice di Calore: 37°C
P.to Rugiada: 23°C
Umidita: 59%
Barometro: 1010 hPa
Visibilita: oltre 10 km
dettagli cloud: Sereno
LIRU 171750Z 26003KT 220V300 CAVOK 32/23 Q1010
LIRG - Guidonia (it-Afb, Italy
Distanza dalla stazione: SE 68 km
Dati ricevuti: 17-08-2022 19:55
DATI Obsoleti
Sereno  
Sereno  
   Vento: Sud 9.3 km/h
Vento: Sud 9.3 km/h
Temperatura: 32°C
Indice di Calore: 34°C
P.to Rugiada: 20°C
Umidita: 49%
Barometro: 1010 hPa
Visibilita: oltre 10 km
dettagli cloud: Sereno
LIRG 171755Z 19005KT CAVOK 32/20 Q1010
LIRK - Terminillo Mount, Italy
Distanza dalla stazione: E 70 km
Dati ricevuti: 17-08-2022 22:55
  
  
   Vento: SW 5.6 km/h
Vento: SW 5.6 km/h
Temperatura: 22°C
P.to Rugiada: 10°C
Umidita: 47%
Barometro: 1021 hPa
LIRK 172055Z AUTO 22003KT //// 22/10 Q1021
 

Script sviluppato da  Saratoga-weather.org Adattato per il modello da  Weerstation Leuven

Strumentazione usata:

Stazione meteo
Davis VP2

Programma gestore dati meteo
WVIEW

Server per i dati meteo
WDS-5

Davis VP2

WVIEW

WDS-5